Annville, Kentucky
Current Conditions -  °F | °C
As of 10:53 PM on Friday 19 Dec 2014 (Local Time) from KLOZ Reporting Station
Clear Clear  
Wind Chill: 25°   Ceiling: Unl
Heat Index: 30°   Visibility: 10mi
Dew Point: 22°   Wind: 5mph
Humidity: 72%   Direction: 30°NNE
Pressure: 30.21"   Gusts: NA
Location:  37.32°N, 83.97°W
Report Text: KLOZ 200353Z AUTO 03004KT 10SM CLR M01/M06 A3021 RMK AO2 SLP239 T10111056
Loading
Personal Weather Stations






























Interactive Weather Map New forecast layout! Learn more

10-Day Weather Forecast

Advertisements
Track Severe Weather on mobile